Time;durP1;ratioP1;P1;durP2;ratioP2;P2;SDS_P1;SDS_P2;PMS_P1;PMS_P2;Temp;Humidity;BMP_temperature;BMP_pressure;BME280_temperature;BME280_humidity;BME280_pressure;Samples;Min_cycle;Max_cycle;Signal;HPM_P1;HPM_P2
2023/05/20 00:02:15;;;;;;;9.98;5.22;;;24.00;99.90;;;;;;5035899;28;20049;-57
2023/05/20 00:04:40;;;;;;;6.30;4.47;;;24.00;99.90;;;;;;5035974;28;20021;-57
2023/05/20 00:07:06;;;;;;;7.07;4.32;;;24.00;99.90;;;;;;5035887;28;20523;-56
2023/05/20 00:09:32;;;;;;;6.82;4.47;;;24.00;99.90;;;;;;5035938;28;20359;-55
2023/05/20 00:11:58;;;;;;;7.90;4.50;;;24.00;99.90;;;;;;5035672;28;20088;-55
2023/05/20 00:14:23;;;;;;;6.63;4.20;;;24.00;99.90;;;;;;5036060;28;20026;-56
2023/05/20 00:16:49;;;;;;;7.20;4.30;;;24.00;99.90;;;;;;5035698;28;20108;-56
2023/05/20 00:19:15;;;;;;;8.20;4.80;;;24.00;99.90;;;;;;5034499;28;20033;-56
2023/05/20 00:21:41;;;;;;;5.93;4.43;;;24.00;99.90;;;;;;5035693;28;20025;-56
2023/05/20 00:24:07;;;;;;;8.00;5.13;;;24.00;99.90;;;;;;5035805;28;20079;-56
2023/05/20 00:26:32;;;;;;;7.80;5.00;;;24.00;99.90;;;;;;5035312;28;20021;-55
2023/05/20 00:28:58;;;;;;;7.40;4.70;;;24.00;99.90;;;;;;5035520;28;20164;-55
2023/05/20 00:31:24;;;;;;;6.95;4.93;;;24.00;99.90;;;;;;5035681;28;20029;-55
2023/05/20 00:33:50;;;;;;;6.80;4.68;;;24.00;99.90;;;;;;5035365;28;20025;-56
2023/05/20 00:36:15;;;;;;;8.40;4.80;;;23.90;99.90;;;;;;5035552;28;20057;-56
2023/05/20 00:38:41;;;;;;;7.40;4.95;;;24.00;99.90;;;;;;5035098;28;20102;-56
2023/05/20 00:41:07;;;;;;;6.57;4.63;;;24.00;99.90;;;;;;5034021;28;20021;-57
2023/05/20 00:43:33;;;;;;;5.80;4.40;;;24.00;99.90;;;;;;5035200;28;20175;-56
2023/05/20 00:46:00;;;;;;;8.30;4.30;;;23.90;99.90;;;;;;5035278;28;20409;-56
2023/05/20 00:48:31;;;;;;;7.05;4.88;;;23.90;99.90;;;;;;5034982;28;20017;-56
2023/05/20 00:50:57;;;;;;;6.10;4.53;;;24.00;99.90;;;;;;5017027;28;20042;-56
2023/05/20 00:53:24;;;;;;;7.28;5.07;;;24.00;99.90;;;;;;5034865;28;20018;-56
2023/05/20 00:55:49;;;;;;;6.75;4.82;;;24.00;99.90;;;;;;5035009;28;20021;-56
2023/05/20 00:58:15;;;;;;;8.20;4.88;;;24.00;99.90;;;;;;5035086;28;20099;-55
2023/05/20 01:00:41;;;;;;;7.07;4.80;;;24.00;99.90;;;;;;5035516;28;20041;-55
2023/05/20 01:03:07;;;;;;;7.30;5.05;;;23.90;99.90;;;;;;5034836;28;20469;-56
2023/05/20 01:05:33;;;;;;;6.80;4.47;;;23.90;99.90;;;;;;5034781;28;20030;-55
2023/05/20 01:07:59;;;;;;;6.82;4.45;;;23.90;99.90;;;;;;5035024;28;20066;-56
2023/05/20 01:10:29;;;;;;;6.25;4.47;;;23.90;99.90;;;;;;5033418;28;20057;-55
2023/05/20 01:13:00;;;;;;;8.30;4.68;;;23.90;99.90;;;;;;5034699;28;20488;-56
2023/05/20 01:15:27;;;;;;;7.40;4.38;;;23.90;99.90;;;;;;5032474;28;20339;-56
2023/05/20 01:18:00;;;;;;;8.13;4.70;;;23.90;99.90;;;;;;5034715;28;20099;-57
2023/05/20 01:20:28;;;;;;;7.10;4.63;;;24.00;99.90;;;;;;5034231;28;20029;-57
2023/05/20 01:22:55;;;;;;;7.15;5.00;;;23.90;99.90;;;;;;5034495;28;20018;-57
2023/05/20 01:25:22;;;;;;;7.80;4.70;;;23.90;99.90;;;;;;5034359;28;20503;-57
2023/05/20 01:27:49;;;;;;;7.37;4.07;;;23.90;99.90;;;;;;5034730;28;20505;-56
2023/05/20 01:30:15;;;;;;;6.10;4.70;;;23.90;99.90;;;;;;5034413;28;20021;-57
2023/05/20 01:32:47;;;;;;;7.00;5.05;;;23.90;99.90;;;;;;5034424;28;20037;-56
2023/05/20 01:35:14;;;;;;;8.13;5.25;;;23.90;99.90;;;;;;5032944;28;20100;-56
2023/05/20 01:37:41;;;;;;;7.65;5.03;;;23.90;99.90;;;;;;5034324;28;20021;-57
2023/05/20 01:40:08;;;;;;;7.73;4.90;;;23.90;99.90;;;;;;5032716;28;20489;-57
2023/05/20 01:42:36;;;;;;;6.53;4.57;;;23.90;99.90;;;;;;5034450;28;20039;-57
2023/05/20 01:45:02;;;;;;;6.25;4.45;;;23.90;99.90;;;;;;5034259;28;20036;-56
2023/05/20 01:47:28;;;;;;;12.32;5.25;;;23.90;99.90;;;;;;5034162;28;20025;-56
2023/05/20 01:49:54;;;;;;;7.95;5.10;;;23.90;99.90;;;;;;5033989;28;20068;-57
2023/05/20 01:52:21;;;;;;;10.02;5.57;;;23.90;99.90;;;;;;5033772;28;20026;-56
2023/05/20 01:54:50;;;;;;;7.65;4.97;;;23.90;99.90;;;;;;5034189;28;20030;-57
2023/05/20 01:57:20;;;;;;;8.60;5.57;;;23.90;99.90;;;;;;5033689;28;20021;-57
2023/05/20 01:59:46;;;;;;;7.88;5.60;;;23.90;99.90;;;;;;5033861;28;20029;-56
2023/05/20 02:02:13;;;;;;;7.50;5.05;;;23.90;99.90;;;;;;5032325;28;20041;-56
2023/05/20 02:04:38;;;;;;;8.02;5.32;;;23.90;99.90;;;;;;5033563;28;20419;-55
2023/05/20 02:07:04;;;;;;;8.25;4.63;;;23.90;99.90;;;;;;5033425;28;20037;-56
2023/05/20 02:09:30;;;;;;;11.10;5.30;;;23.90;99.90;;;;;;5033862;28;20135;-55
2023/05/20 02:11:56;;;;;;;7.80;5.50;;;23.90;99.90;;;;;;5032488;28;20393;-56
2023/05/20 02:14:21;;;;;;;8.27;5.75;;;23.90;99.90;;;;;;5032852;28;20036;-56
2023/05/20 02:16:47;;;;;;;8.30;5.50;;;23.90;99.90;;;;;;5033407;28;20030;-55
2023/05/20 02:19:18;;;;;;;6.88;5.00;;;23.90;99.90;;;;;;5033307;28;20123;-56
2023/05/20 02:21:46;;;;;;;6.88;4.75;;;23.90;99.90;;;;;;5033480;28;20033;-56
2023/05/20 02:24:11;;;;;;;;;;;23.80;99.90;;;;;;5033962;28;20028;-56
2023/05/20 02:26:37;;;;;;;7.63;5.25;;;23.90;99.90;;;;;;5032003;28;19909;-55
2023/05/20 02:29:03;;;;;;;7.30;5.40;;;23.90;99.90;;;;;;5033136;28;20052;-55
2023/05/20 02:31:29;;;;;;;7.93;5.47;;;23.90;99.90;;;;;;5031591;28;20034;-56
2023/05/20 02:33:55;;;;;;;8.63;5.65;;;23.80;99.90;;;;;;5033290;28;20024;-55
2023/05/20 02:36:21;;;;;;;8.93;5.60;;;23.80;99.90;;;;;;5033241;28;20037;-56
2023/05/20 02:38:47;;;;;;;7.95;5.72;;;23.80;99.90;;;;;;5031738;28;20519;-55
2023/05/20 02:41:12;;;;;;;8.75;5.82;;;23.80;99.90;;;;;;5033288;28;20100;-56
2023/05/20 02:43:39;;;;;;;10.02;6.00;;;23.80;99.90;;;;;;5033195;28;20020;-57
2023/05/20 02:46:05;;;;;;;10.65;5.80;;;23.80;99.90;;;;;;5031782;28;20099;-57
2023/05/20 02:48:31;;;;;;;8.05;5.80;;;23.80;99.90;;;;;;5032768;28;20125;-57
2023/05/20 02:50:58;;;;;;;9.80;6.70;;;23.80;99.90;;;;;;5032837;28;20108;-56
2023/05/20 02:53:24;;;;;;;8.43;5.93;;;23.80;99.90;;;;;;5032769;28;20501;-57
2023/05/20 02:55:50;;;;;;;11.15;5.75;;;23.80;99.90;;;;;;5015234;28;20108;-57
2023/05/20 02:58:16;;;;;;;8.27;5.68;;;23.80;99.90;;;;;;5032894;28;20033;-57
2023/05/20 03:00:42;;;;;;;8.55;5.88;;;23.80;99.90;;;;;;5031776;28;20034;-57
2023/05/20 03:03:09;;;;;;;9.30;5.63;;;23.80;99.90;;;;;;5032838;28;20025;-56
2023/05/20 03:05:36;;;;;;;9.23;5.97;;;23.80;99.90;;;;;;5032713;28;20013;-57
2023/05/20 03:08:08;;;;;;;9.20;6.40;;;23.70;99.90;;;;;;5032799;28;20518;-58
2023/05/20 03:10:38;;;;;;;9.75;6.70;;;23.70;99.90;;;;;;5032654;28;20018;-56
2023/05/20 03:13:08;;;;;;;10.35;6.57;;;23.70;99.90;;;;;;5033930;28;20080;-56
2023/05/20 03:15:35;;;;;;;8.68;5.97;;;23.80;99.90;;;;;;5039243;28;20393;-56
2023/05/20 03:18:01;;;;;;;10.70;6.30;;;23.80;99.90;;;;;;5038120;28;20026;-57
2023/05/20 03:20:31;;;;;;;9.18;5.90;;;23.80;99.90;;;;;;5039262;28;20014;-57
2023/05/20 03:22:57;;;;;;;8.45;5.70;;;23.70;99.90;;;;;;5039167;28;20104;-57
2023/05/20 03:25:24;;;;;;;8.27;5.93;;;23.70;99.90;;;;;;5039222;28;20045;-56
2023/05/20 03:27:50;;;;;;;9.95;5.97;;;23.70;99.90;;;;;;5039179;28;20021;-56
2023/05/20 03:30:16;;;;;;;9.40;6.35;;;23.70;99.90;;;;;;5039156;28;20104;-55
2023/05/20 03:32:42;;;;;;;9.18;6.07;;;23.70;99.90;;;;;;5039165;28;20029;-55
2023/05/20 03:35:08;;;;;;;9.38;6.30;;;23.70;99.90;;;;;;5039123;28;20428;-56
2023/05/20 03:37:35;;;;;;;10.02;5.82;;;23.70;99.90;;;;;;5039152;28;20021;-55
2023/05/20 03:40:04;;;;;;;8.32;5.57;;;23.70;99.90;;;;;;5039000;28;20048;-56
2023/05/20 03:42:31;;;;;;;10.68;6.05;;;23.70;99.90;;;;;;5039158;28;20478;-56
2023/05/20 03:44:59;;;;;;;10.43;6.05;;;23.70;99.90;;;;;;5037985;28;20115;-56
2023/05/20 03:47:28;;;;;;;9.48;5.55;;;23.70;99.90;;;;;;5039124;28;20053;-55
2023/05/20 03:49:54;;;;;;;9.82;6.35;;;23.70;99.90;;;;;;5039156;28;20029;-55
2023/05/20 03:52:20;;;;;;;8.82;6.07;;;23.70;99.90;;;;;;5037361;28;20040;-55
2023/05/20 03:54:46;;;;;;;11.30;6.22;;;23.70;99.90;;;;;;5038977;28;20018;-56
2023/05/20 03:57:11;;;;;;;10.10;5.68;;;23.70;99.90;;;;;;5038793;28;20025;-56
2023/05/20 03:59:38;;;;;;;10.32;6.47;;;23.70;99.90;;;;;;5038895;28;20025;-55
2023/05/20 04:02:04;;;;;;;9.88;6.70;;;23.70;99.90;;;;;;5037787;28;20128;-55
2023/05/20 04:04:31;;;;;;;10.07;6.28;;;23.70;99.90;;;;;;5039178;28;20108;-55
2023/05/20 04:06:59;;;;;;;9.43;5.80;;;23.70;99.90;;;;;;5038889;28;20029;-55
2023/05/20 04:09:26;;;;;;;9.73;6.35;;;23.70;99.90;;;;;;5039029;28;20022;-55
2023/05/20 04:11:52;;;;;;;7.60;5.53;;;23.70;99.90;;;;;;5038450;28;20025;-55
2023/05/20 04:14:18;;;;;;;9.27;6.55;;;23.70;99.90;;;;;;5037338;28;20071;-56
2023/05/20 04:16:44;;;;;;;11.52;7.15;;;23.70;99.90;;;;;;5039595;28;20018;-56
2023/05/20 04:19:11;;;;;;;13.65;6.38;;;23.60;99.90;;;;;;5037441;28;20025;-57
2023/05/20 04:21:37;;;;;;;10.48;5.32;;;23.70;99.90;;;;;;5038516;28;20059;-56
2023/05/20 04:24:03;;;;;;;7.57;5.20;;;23.70;99.90;;;;;;5038102;28;20026;-56
2023/05/20 04:26:29;;;;;;;9.65;6.00;;;23.70;99.90;;;;;;5034748;28;20032;-56
2023/05/20 04:28:57;;;;;;;8.38;4.82;;;23.70;99.90;;;;;;5018040;28;20374;-56
2023/05/20 04:31:25;;;;;;;11.30;5.70;;;23.60;99.90;;;;;;5035429;28;20481;-56
2023/05/20 04:33:54;;;;;;;7.20;4.57;;;23.60;99.90;;;;;;5035903;28;20089;-56
2023/05/20 04:36:21;;;;;;;8.98;5.22;;;23.60;99.90;;;;;;5034182;28;20104;-56
2023/05/20 04:38:47;;;;;;;8.55;4.68;;;23.60;99.90;;;;;;5035772;28;20346;-57
2023/05/20 04:41:14;;;;;;;8.02;5.00;;;23.60;99.90;;;;;;5035474;28;20018;-56
2023/05/20 04:43:40;;;;;;;;;;;23.60;99.90;;;;;;5035499;28;20109;-56
2023/05/20 04:46:06;;;;;;;7.63;4.43;;;23.60;99.90;;;;;;5033481;28;20003;-53
2023/05/20 04:48:32;;;;;;;6.00;4.07;;;23.60;99.90;;;;;;5035003;28;20030;-55
2023/05/20 04:50:58;;;;;;;7.07;3.90;;;23.60;99.90;;;;;;5035141;28;20027;-54
2023/05/20 04:53:24;;;;;;;7.07;4.45;;;23.60;99.90;;;;;;5034773;28;20037;-55
2023/05/20 04:55:53;;;;;;;8.13;4.05;;;23.60;99.90;;;;;;5034928;28;20025;-55
2023/05/20 04:58:23;;;;;;;5.88;4.22;;;23.60;99.90;;;;;;5035157;28;20030;-55
2023/05/20 05:00:49;;;;;;;9.23;3.80;;;23.60;99.90;;;;;;5034898;28;20088;-55
2023/05/20 05:03:15;;;;;;;11.52;4.38;;;23.60;99.90;;;;;;5035048;28;20018;-54
2023/05/20 05:05:41;;;;;;;10.98;3.53;;;23.60;99.90;;;;;;5034781;28;20032;-55
2023/05/20 05:08:08;;;;;;;9.82;4.40;;;23.60;99.90;;;;;;5035080;28;20029;-55
2023/05/20 05:10:35;;;;;;;9.32;3.97;;;23.60;99.90;;;;;;5034654;28;20020;-55
2023/05/20 05:13:01;;;;;;;5.95;3.42;;;23.60;99.90;;;;;;5034795;28;20045;-55
2023/05/20 05:15:27;;;;;;;6.30;4.03;;;23.60;99.90;;;;;;5034707;28;20152;-55
2023/05/20 05:17:53;;;;;;;9.98;3.38;;;23.60;99.90;;;;;;5034923;28;20033;-55
2023/05/20 05:20:19;;;;;;;8.13;3.53;;;23.60;99.90;;;;;;5034455;28;20478;-55
2023/05/20 05:22:45;;;;;;;8.02;4.13;;;23.60;99.90;;;;;;5034673;28;20532;-54
2023/05/20 05:25:11;;;;;;;8.73;3.90;;;23.60;99.90;;;;;;5033902;28;20028;-54
2023/05/20 05:27:37;;;;;;;5.80;3.72;;;23.60;99.90;;;;;;5033139;28;20022;-55
2023/05/20 05:30:05;;;;;;;6.78;4.25;;;23.60;99.90;;;;;;5034167;28;20559;-55
2023/05/20 05:32:31;;;;;;;7.80;3.97;;;23.50;99.90;;;;;;5032991;28;20083;-55
2023/05/20 05:34:57;;;;;;;8.55;3.70;;;23.50;99.90;;;;;;5033223;28;20029;-55
2023/05/20 05:37:23;;;;;;;7.20;3.83;;;23.50;99.90;;;;;;5032971;28;20049;-55
2023/05/20 05:39:49;;;;;;;9.18;4.57;;;23.50;99.90;;;;;;5034203;28;20096;-55
2023/05/20 05:42:14;;;;;;;7.57;3.83;;;23.50;99.90;;;;;;5034099;28;20075;-55
2023/05/20 05:44:40;;;;;;;6.60;3.78;;;23.50;99.90;;;;;;5034103;28;20017;-54
2023/05/20 05:47:07;;;;;;;8.38;4.00;;;23.50;99.90;;;;;;5032393;28;20381;-54
2023/05/20 05:49:33;;;;;;;6.18;3.35;;;23.50;99.90;;;;;;5034064;28;20021;-54
2023/05/20 05:51:59;;;;;;;6.18;4.07;;;23.50;99.90;;;;;;5033805;28;20026;-54
2023/05/20 05:54:24;;;;;;;4.78;3.60;;;23.60;99.90;;;;;;5034109;28;20081;-55
2023/05/20 05:56:51;;;;;;;6.22;3.80;;;23.50;99.90;;;;;;5033764;28;20053;-55
2023/05/20 05:59:17;;;;;;;8.57;3.97;;;23.50;99.90;;;;;;5033981;28;20052;-55
2023/05/20 06:01:42;;;;;;;5.35;3.53;;;23.50;99.90;;;;;;5033573;28;20470;-54
2023/05/20 06:04:08;;;;;;;6.65;3.60;;;23.50;99.90;;;;;;5033570;28;20359;-55
2023/05/20 06:06:34;;;;;;;8.02;4.05;;;23.50;99.90;;;;;;5033887;28;20019;-55
2023/05/20 06:09:00;;;;;;;5.55;3.92;;;23.50;99.90;;;;;;5033780;28;20604;-55
2023/05/20 06:11:26;;;;;;;7.03;3.80;;;23.50;99.90;;;;;;5033494;28;20132;-54
2023/05/20 06:13:52;;;;;;;6.82;4.25;;;23.50;99.90;;;;;;5033375;28;20367;-55
2023/05/20 06:16:17;;;;;;;5.72;3.20;;;23.50;99.90;;;;;;5033674;28;20465;-55
2023/05/20 06:18:45;;;;;;;6.70;3.88;;;23.50;99.90;;;;;;5033311;28;20022;-55
2023/05/20 06:21:11;;;;;;;4.90;3.42;;;23.60;99.90;;;;;;5033272;28;20057;-55
2023/05/20 06:23:37;;;;;;;6.40;3.70;;;23.50;99.90;;;;;;5033594;28;20095;-55
2023/05/20 06:26:03;;;;;;;6.03;3.67;;;23.50;99.90;;;;;;5020233;28;20072;-55
2023/05/20 06:28:30;;;;;;;5.25;3.20;;;23.50;99.90;;;;;;5033183;28;20030;-55
2023/05/20 06:30:56;;;;;;;4.28;3.00;;;23.60;99.90;;;;;;5018851;28;20381;-55
2023/05/20 06:33:27;;;;;;;4.43;3.20;;;23.50;99.90;;;;;;5033223;28;20061;-55
2023/05/20 06:35:55;;;;;;;6.57;3.50;;;23.60;99.90;;;;;;5033326;28;20022;-55
2023/05/20 06:38:21;;;;;;;6.10;3.58;;;23.60;99.90;;;;;;5033228;28;20022;-55
2023/05/20 06:40:48;;;;;;;4.78;3.30;;;23.50;99.90;;;;;;5033158;28;20025;-55
2023/05/20 06:43:14;;;;;;;7.75;3.45;;;23.60;99.90;;;;;;5033186;28;20070;-55
2023/05/20 06:45:40;;;;;;;4.80;3.20;;;23.60;99.90;;;;;;5033231;28;20099;-56
2023/05/20 06:48:07;;;;;;;6.15;3.72;;;23.60;99.90;;;;;;5032863;28;20026;-55
2023/05/20 06:50:32;;;;;;;5.55;2.92;;;23.60;99.90;;;;;;5032872;28;20048;-55
2023/05/20 06:52:58;;;;;;;5.40;3.45;;;23.60;99.90;;;;;;5032815;28;20478;-55
2023/05/20 06:55:25;;;;;;;6.00;3.90;;;23.60;99.90;;;;;;5032940;28;20104;-55
2023/05/20 06:57:50;;;;;;;6.55;3.72;;;23.60;99.90;;;;;;5032930;28;20022;-55
2023/05/20 07:00:17;;;;;;;4.80;3.63;;;23.60;99.90;;;;;;5032682;28;20128;-55
2023/05/20 07:02:43;;;;;;;5.72;4.00;;;23.60;99.90;;;;;;5032611;28;20094;-55
2023/05/20 07:05:09;;;;;;;5.30;3.70;;;23.60;99.90;;;;;;5032757;28;20441;-55
2023/05/20 07:07:35;;;;;;;6.78;3.70;;;23.60;99.90;;;;;;5032903;28;20034;-55
2023/05/20 07:10:00;;;;;;;4.63;3.60;;;23.60;99.90;;;;;;5032660;28;20378;-55
2023/05/20 07:12:26;;;;;;;6.68;3.72;;;23.60;99.90;;;;;;5032654;28;20037;-55
2023/05/20 07:14:52;;;;;;;5.32;3.75;;;23.60;99.90;;;;;;5032561;28;20028;-55
2023/05/20 07:17:18;;;;;;;7.55;3.80;;;23.60;99.90;;;;;;5032637;28;20363;-55
2023/05/20 07:19:43;;;;;;;6.45;3.53;;;23.60;99.90;;;;;;5032540;28;20087;-55
2023/05/20 07:22:10;;;;;;;5.70;3.83;;;23.60;99.90;;;;;;5032709;28;20033;-55
2023/05/20 07:24:36;;;;;;;9.70;3.47;;;23.70;99.90;;;;;;5032654;28;20022;-56
2023/05/20 07:27:02;;;;;;;4.72;3.20;;;23.70;99.90;;;;;;5032673;28;20095;-56
2023/05/20 07:29:27;;;;;;;7.07;3.40;;;23.60;99.90;;;;;;5032745;28;20477;-54
2023/05/20 07:31:53;;;;;;;6.97;3.42;;;23.70;99.90;;;;;;5032447;28;20021;-56
2023/05/20 07:34:19;;;;;;;6.28;3.58;;;23.60;99.90;;;;;;5032483;28;20438;-55
2023/05/20 07:36:45;;;;;;;5.93;3.55;;;23.70;99.90;;;;;;5032498;28;20022;-55
2023/05/20 07:39:10;;;;;;;5.43;3.40;;;23.70;99.90;;;;;;5031312;28;20029;-55
2023/05/20 07:41:40;;;;;;;6.95;3.67;;;23.70;99.90;;;;;;5032267;28;20021;-55
2023/05/20 07:44:07;;;;;;;6.40;3.70;;;23.70;99.90;;;;;;5031373;28;20021;-55
2023/05/20 07:46:34;;;;;;;5.82;3.70;;;23.70;99.90;;;;;;5032195;28;20032;-55
2023/05/20 07:48:59;;;;;;;5.55;3.70;;;23.70;99.90;;;;;;5032315;28;20056;-55
2023/05/20 07:51:25;;;;;;;6.38;3.38;;;23.70;99.90;;;;;;5032376;28;20073;-55
2023/05/20 07:53:51;;;;;;;6.13;3.85;;;23.70;99.90;;;;;;5032126;28;20411;-55
2023/05/20 07:56:17;;;;;;;4.82;3.72;;;23.70;99.90;;;;;;5032188;28;20063;-55
2023/05/20 07:58:52;;;;;;;5.50;3.40;;;23.70;99.90;;;;;;5032325;28;20014;-55
2023/05/20 08:01:19;;;;;;;7.53;3.83;;;23.70;99.90;;;;;;5034533;28;20481;-55
2023/05/20 08:03:45;;;;;;;7.22;3.30;;;23.70;99.90;;;;;;5035901;28;20017;-55
2023/05/20 08:06:10;;;;;;;4.07;3.25;;;23.70;99.90;;;;;;5036123;28;20021;-55
2023/05/20 08:08:36;;;;;;;5.35;4.10;;;23.70;99.90;;;;;;5035969;28;20026;-54
2023/05/20 08:11:03;;;;;;;5.50;3.67;;;23.70;99.90;;;;;;5035963;28;20543;-55
2023/05/20 08:13:28;;;;;;;4.85;3.40;;;23.70;99.90;;;;;;5035187;28;20030;-55
2023/05/20 08:15:54;;;;;;;6.10;3.80;;;23.70;99.90;;;;;;5035743;28;20428;-55
2023/05/20 08:18:20;;;;;;;6.57;3.83;;;23.70;99.90;;;;;;5035790;28;20053;-55
2023/05/20 08:20:47;;;;;;;5.82;3.67;;;23.70;99.90;;;;;;5034561;28;20528;-54
2023/05/20 08:23:12;;;;;;;8.98;4.72;;;23.70;99.90;;;;;;5035565;28;20349;-55
2023/05/20 08:25:38;;;;;;;6.35;4.60;;;23.70;99.90;;;;;;5035603;28;20026;-55
2023/05/20 08:28:05;;;;;;;8.73;5.15;;;23.70;99.90;;;;;;5035405;28;20382;-55
2023/05/20 08:30:32;;;;;;;6.03;4.45;;;23.70;99.90;;;;;;5035713;28;20057;-55
2023/05/20 08:32:59;;;;;;;7.93;4.78;;;23.70;99.90;;;;;;5035412;28;20091;-55
2023/05/20 08:35:25;;;;;;;7.55;5.75;;;23.70;99.90;;;;;;5035503;28;20040;-54
2023/05/20 08:37:54;;;;;;;5.63;4.30;;;23.80;99.90;;;;;;5035501;28;20034;-54
2023/05/20 08:40:21;;;;;;;7.65;4.82;;;23.70;99.90;;;;;;5033690;28;20017;-55
2023/05/20 08:42:48;;;;;;;6.10;4.60;;;23.70;99.90;;;;;;5035391;28;20080;-55
2023/05/20 08:45:17;;;;;;;9.10;4.75;;;23.80;99.90;;;;;;5035155;28;20071;-54
2023/05/20 08:47:43;;;;;;;7.68;5.22;;;23.70;99.90;;;;;;5035218;28;20025;-55
2023/05/20 08:50:13;;;;;;;6.40;4.57;;;23.80;99.90;;;;;;5035179;28;20048;-55
2023/05/20 08:52:47;;;;;;;6.47;4.47;;;23.80;99.90;;;;;;5035008;28;20041;-55
2023/05/20 08:55:24;;;;;;;7.05;5.05;;;23.80;99.90;;;;;;5035233;28;20350;-55
2023/05/20 08:57:50;;;;;;;7.68;4.80;;;23.80;99.90;;;;;;5033648;28;20026;-55
2023/05/20 09:00:17;;;;;;;5.90;4.50;;;23.70;99.90;;;;;;5035103;28;20033;-55
2023/05/20 09:02:45;;;;;;;7.22;4.78;;;23.80;99.90;;;;;;5034946;28;20068;-54
2023/05/20 09:05:11;;;;;;;6.82;5.03;;;23.80;99.90;;;;;;5034722;28;20091;-55
2023/05/20 09:07:36;;;;;;;6.25;4.72;;;23.80;99.90;;;;;;5035069;28;20021;-54
2023/05/20 09:10:05;;;;;;;5.75;4.45;;;23.80;99.90;;;;;;5034557;28;20025;-54
2023/05/20 09:12:31;;;;;;;6.40;4.55;;;23.80;99.90;;;;;;5034392;28;20025;-55
2023/05/20 09:14:56;;;;;;;6.57;4.22;;;23.80;99.90;;;;;;5023060;28;20035;-55
2023/05/20 09:17:23;;;;;;;7.13;4.03;;;23.80;99.90;;;;;;5034544;28;20031;-55
2023/05/20 09:19:55;;;;;;;5.22;4.03;;;23.80;99.90;;;;;;5034826;28;20052;-55
2023/05/20 09:22:24;;;;;;;7.43;4.47;;;23.80;99.90;;;;;;5034471;28;20021;-56
2023/05/20 09:24:51;;;;;;;6.72;4.43;;;23.80;99.90;;;;;;5034364;28;20037;-55
2023/05/20 09:27:17;;;;;;;5.47;3.80;;;23.80;99.90;;;;;;5020121;28;20477;-55
2023/05/20 09:29:43;;;;;;;6.20;4.10;;;23.80;99.90;;;;;;5034386;28;20087;-55
2023/05/20 09:32:12;;;;;;;5.93;4.40;;;23.90;99.90;;;;;;5034771;28;20065;-55
2023/05/20 09:34:40;;;;;;;5.40;4.30;;;23.90;99.90;;;;;;5033221;28;20025;-55
2023/05/20 09:37:07;;;;;;;5.68;4.22;;;23.90;99.90;;;;;;5034148;28;20129;-54
2023/05/20 09:39:44;;;;;;;5.80;3.87;;;23.90;99.90;;;;;;5034147;28;20025;-55
2023/05/20 09:42:25;;;;;;;6.18;4.35;;;23.90;99.90;;;;;;5033818;28;20026;-55
2023/05/20 09:44:56;;;;;;;6.43;4.38;;;23.90;99.90;;;;;;5033903;28;20548;-55
2023/05/20 09:47:24;;;;;;;6.10;4.28;;;23.90;99.90;;;;;;5032542;28;20026;-55
2023/05/20 09:49:51;;;;;;;7.00;4.15;;;23.90;99.90;;;;;;5034297;28;20075;-56
2023/05/20 09:52:17;;;;;;;5.03;3.75;;;23.90;99.90;;;;;;5033874;28;20079;-56
2023/05/20 09:54:44;;;;;;;8.38;5.35;;;23.90;99.90;;;;;;5032864;28;20025;-56
2023/05/20 09:57:11;;;;;;;5.55;4.20;;;23.90;99.90;;;;;;5033779;28;20029;-56
2023/05/20 09:59:37;;;;;;;5.50;4.45;;;23.90;99.90;;;;;;5034057;28;20175;-56
2023/05/20 10:02:05;;;;;;;7.00;4.95;;;23.90;99.90;;;;;;5033567;28;20045;-57
2023/05/20 10:04:34;;;;;;;8.38;6.20;;;23.90;99.90;;;;;;5033834;28;20500;-56
2023/05/20 10:07:25;;;;;;;9.77;6.35;;;23.90;99.90;;;;;;5033786;28;20025;-55
2023/05/20 10:10:00;;;;;;;12.55;6.20;;;23.90;99.90;;;;;;5033764;28;20014;-55
2023/05/20 10:12:50;;;;;;;10.30;7.10;;;23.90;99.90;;;;;;5020791;28;20044;-55
2023/05/20 10:15:49;;;;;;;10.10;7.55;;;23.90;99.90;;;;;;5032305;28;20018;-55
2023/05/20 10:18:48;;;;;;;8.75;6.18;;;23.90;99.90;;;;;;5010580;28;20425;-56
2023/05/20 10:21:23;;;;;;;9.25;7.43;;;23.90;99.90;;;;;;5033528;28;20112;-56
2023/05/20 10:23:50;;;;;;;11.27;7.97;;;24.00;99.90;;;;;;5032670;28;20013;-56
2023/05/20 10:26:16;;;;;;;10.38;8.10;;;24.00;99.90;;;;;;5033371;28;20025;-56
2023/05/20 10:28:42;;;;;;;11.43;7.10;;;24.00;99.90;;;;;;5033197;28;20105;-55
2023/05/20 10:31:16;;;;;;;12.05;7.20;;;24.00;99.90;;;;;;5033431;28;20032;-56
2023/05/20 10:33:43;;;;;;;10.82;7.40;;;24.00;99.90;;;;;;5033332;28;20034;-56
2023/05/20 10:36:09;;;;;;;8.63;6.57;;;24.00;99.90;;;;;;5033380;28;20025;-56
2023/05/20 10:38:35;;;;;;;9.90;7.28;;;24.00;99.90;;;;;;5033144;28;20033;-56
2023/05/20 10:41:10;;;;;;;10.35;7.55;;;24.10;99.90;;;;;;5033383;28;20018;-55
2023/05/20 10:43:36;;;;;;;10.38;7.30;;;24.10;99.90;;;;;;5032882;28;20045;-56
2023/05/20 10:46:02;;;;;;;10.38;7.28;;;24.00;99.90;;;;;;5015121;28;20025;-56
2023/05/20 10:48:30;;;;;;;9.93;7.10;;;24.00;99.90;;;;;;5032867;28;20160;-56
2023/05/20 10:50:58;;;;;;;9.52;7.30;;;24.10;99.90;;;;;;5033233;28;20166;-56
2023/05/20 10:53:26;;;;;;;9.88;6.93;;;24.10;99.90;;;;;;5032660;28;20124;-56
2023/05/20 10:55:53;;;;;;;10.70;6.93;;;24.10;99.90;;;;;;5033126;28;20370;-56
2023/05/20 10:58:22;;;;;;;9.60;6.97;;;24.10;99.90;;;;;;5032724;28;20036;-56
2023/05/20 11:00:49;;;;;;;11.95;7.57;;;24.10;99.90;;;;;;5032970;28;20052;-55
2023/05/20 11:03:17;;;;;;;10.70;6.55;;;24.10;99.90;;;;;;5032866;28;20034;-55
2023/05/20 11:05:45;;;;;;;9.30;7.13;;;24.10;99.90;;;;;;5033039;28;20479;-55
2023/05/20 11:08:11;;;;;;;8.43;6.22;;;24.10;99.90;;;;;;5032882;28;20025;-55
2023/05/20 11:10:37;;;;;;;10.45;7.18;;;24.10;99.90;;;;;;5032785;28;20045;-56
2023/05/20 11:13:04;;;;;;;8.18;6.57;;;24.10;99.90;;;;;;5032778;28;20064;-55
2023/05/20 11:15:35;;;;;;;9.15;6.40;;;24.10;99.90;;;;;;5032555;28;20474;-56
2023/05/20 11:18:03;;;;;;;6.70;5.72;;;24.10;99.90;;;;;;5032450;28;20017;-56
2023/05/20 11:20:29;;;;;;;8.55;5.85;;;24.20;99.90;;;;;;5032584;28;20438;-56
2023/05/20 11:22:56;;;;;;;7.67;5.83;;;24.20;99.90;;;;;;5032658;28;20112;-55
2023/05/20 11:25:22;;;;;;;9.00;6.30;;;24.10;99.90;;;;;;5031294;28;20345;-55
2023/05/20 11:27:49;;;;;;;10.15;6.82;;;24.20;99.90;;;;;;5032389;28;20017;-55
2023/05/20 11:30:16;;;;;;;6.72;5.25;;;24.20;99.90;;;;;;5032452;28;20022;-55
2023/05/20 11:32:43;;;;;;;9.20;6.40;;;24.20;99.90;;;;;;5032549;28;20036;-56
2023/05/20 11:35:21;;;;;;;7.57;5.82;;;24.20;99.90;;;;;;5034899;28;20028;-55
2023/05/20 11:37:55;;;;;;;7.70;5.32;;;24.20;99.90;;;;;;5036484;28;20032;-56
2023/05/20 11:40:24;;;;;;;8.32;5.47;;;24.20;99.90;;;;;;5036484;28;20029;-56
2023/05/20 11:42:56;;;;;;;6.75;5.38;;;24.30;99.90;;;;;;5034961;28;20052;-56
2023/05/20 11:45:23;;;;;;;6.47;5.15;;;24.20;99.90;;;;;;5036615;28;20017;-56
2023/05/20 11:48:05;;;;;;;7.47;5.40;;;24.30;99.90;;;;;;5036504;28;20493;-56
2023/05/20 11:50:39;;;;;;;9.40;5.70;;;24.30;99.90;;;;;;5036114;28;20477;-56
2023/05/20 11:53:24;;;;;;;8.02;5.05;;;24.30;99.90;;;;;;5036327;28;20033;-55
2023/05/20 11:55:52;;;;;;;7.38;5.60;;;24.30;99.90;;;;;;5035906;28;20148;-55
2023/05/20 11:58:23;;;;;;;7.35;5.82;;;24.30;99.90;;;;;;5036183;28;20030;-55
2023/05/20 12:00:49;;;;;;;7.15;5.32;;;24.30;99.90;;;;;;5035649;28;20037;-56
2023/05/20 12:03:15;;;;;;;7.40;5.45;;;24.30;99.90;;;;;;5036343;28;20032;-56
2023/05/20 12:05:42;;;;;;;7.13;5.65;;;24.40;99.90;;;;;;5036094;28;20381;-55
2023/05/20 12:08:07;;;;;;;7.13;5.47;;;24.40;99.90;;;;;;5036140;28;20097;-55
2023/05/20 12:10:34;;;;;;;6.13;4.97;;;24.40;99.90;;;;;;5035875;28;20121;-56
2023/05/20 12:13:00;;;;;;;6.93;4.88;;;24.40;99.90;;;;;;5034478;28;20111;-56
2023/05/20 12:15:25;;;;;;;5.53;4.70;;;24.40;99.90;;;;;;5035832;28;20084;-55
2023/05/20 12:17:52;;;;;;;7.03;5.13;;;24.40;99.90;;;;;;5035751;28;20511;-55
2023/05/20 12:20:21;;;;;;;7.53;4.93;;;24.40;99.90;;;;;;5035726;28;20482;-56
2023/05/20 12:22:48;;;;;;;6.43;5.22;;;24.50;99.90;;;;;;5022297;28;20155;-55
2023/05/20 12:25:15;;;;;;;7.05;5.25;;;24.50;99.90;;;;;;5035805;28;20048;-55
2023/05/20 12:27:42;;;;;;;;;;;24.40;99.90;;;;;;5022130;28;20100;-55
2023/05/20 12:30:08;;;;;;;6.95;4.72;;;24.50;99.90;;;;;;5035505;28;19927;-55
2023/05/20 12:32:35;;;;;;;5.20;4.13;;;24.50;99.90;;;;;;5035702;28;20489;-56
2023/05/20 12:35:01;;;;;;;7.03;4.85;;;24.50;99.90;;;;;;5035528;28;20047;-55
2023/05/20 12:37:27;;;;;;;6.72;4.72;;;24.50;99.90;;;;;;5035509;28;20026;-55
2023/05/20 12:39:53;;;;;;;6.63;4.78;;;24.50;99.90;;;;;;5035354;28;20013;-56
2023/05/20 12:42:19;;;;;;;7.15;4.35;;;24.50;99.90;;;;;;5035150;28;20112;-55
2023/05/20 12:44:44;;;;;;;7.68;4.65;;;24.50;99.90;;;;;;5035670;28;20022;-55
2023/05/20 12:47:10;;;;;;;7.28;4.50;;;24.50;99.90;;;;;;5034682;28;20051;-55